Time;durP1;ratioP1;P1;durP2;ratioP2;P2;SDS_P1;SDS_P2;PMS_P1;PMS_P2;Temp;Humidity;BMP_temperature;BMP_pressure;BME280_temperature;BME280_humidity;BME280_pressure;Samples;Min_cycle;Max_cycle;Signal;HPM_P1;HPM_P2
2022/04/13 00:02:08;;;;;;;0.10;0.10;;;;;;;;;;5093059;28;20127;-77
2022/04/13 00:04:34;;;;;;;0.10;0.10;;;;;;;;;;5111021;28;20020;-78
2022/04/13 00:07:00;;;;;;;0.10;0.10;;;;;;;;;;5093107;28;20081;-76
2022/04/13 00:09:26;;;;;;;0.10;0.10;;;;;;;;;;5111062;28;20028;-77
2022/04/13 00:11:54;;;;;;;0.10;0.10;;;;;;;;;;5111297;28;20383;-77
2022/04/13 00:14:22;;;;;;;0.10;0.10;;;;;;;;;;5092632;28;20062;-78
2022/04/13 00:16:49;;;;;;;0.10;0.10;;;;;;;;;;5111106;28;20027;-76
2022/04/13 00:19:15;;;;;;;0.10;0.10;;;;;;;;;;5093147;28;20119;-79
2022/04/13 00:21:41;;;;;;;0.10;0.10;;;;;;;;;;5111057;28;20031;-79
2022/04/13 00:24:07;;;;;;;0.10;0.10;;;;;;;;;;5111166;28;20558;-79
2022/04/13 00:26:33;;;;;;;0.13;0.13;;;;;;;;;;5111037;28;20503;-78
2022/04/13 00:29:01;;;;;;;0.10;0.10;;;;;;;;;;5093076;28;20066;-79
2022/04/13 00:31:27;;;;;;;0.10;0.10;;;;;;;;;;5114983;28;20020;-78
2022/04/13 00:33:53;;;;;;;0.10;0.10;;;;;;;;;;5114997;28;20152;-78
2022/04/13 00:36:19;;;;;;;0.10;0.10;;;;;;;;;;5114669;28;20052;-79
2022/04/13 00:38:45;;;;;;;0.10;0.10;;;;;;;;;;5115077;28;20454;-79
2022/04/13 00:41:12;;;;;;;0.17;0.17;;;;;;;;;;5114777;28;20069;-79
2022/04/13 00:43:38;;;;;;;0.10;0.10;;;;;;;;;;5114429;28;20023;-80
2022/04/13 00:46:05;;;;;;;0.10;0.10;;;;;;;;;;5096471;28;20028;-80
2022/04/13 00:48:32;;;;;;;0.10;0.10;;;;;;;;;;5114671;28;20035;-79
2022/04/13 00:50:58;;;;;;;0.10;0.10;;;;;;;;;;5096248;28;20024;-79
2022/04/13 00:53:25;;;;;;;0.10;0.10;;;;;;;;;;5114469;28;20028;-79
2022/04/13 00:55:55;;;;;;;0.10;0.10;;;;;;;;;;5096801;28;20383;-78
2022/04/13 00:58:22;;;;;;;0.10;0.10;;;;;;;;;;5095785;28;20032;-79
2022/04/13 01:00:49;;;;;;;0.10;0.10;;;;;;;;;;5114317;28;20498;-80
2022/04/13 01:03:19;;;;;;;0.10;0.10;;;;;;;;;;5114513;28;20106;-79
2022/04/13 01:05:46;;;;;;;0.10;0.10;;;;;;;;;;5114503;28;20024;-79
2022/04/13 01:08:13;;;;;;;0.10;0.10;;;;;;;;;;5114172;28;20041;-79
2022/04/13 01:10:42;;;;;;;0.10;0.10;;;;;;;;;;5095459;28;20031;-80
2022/04/13 01:13:08;;;;;;;0.10;0.10;;;;;;;;;;5113941;28;20429;-79
2022/04/13 01:15:34;;;;;;;0.10;0.10;;;;;;;;;;5095417;28;20034;-80
2022/04/13 01:18:00;;;;;;;0.10;0.10;;;;;;;;;;5095559;28;20499;-81
2022/04/13 01:20:26;;;;;;;0.10;0.10;;;;;;;;;;5113652;28;20072;-81
2022/04/13 01:22:53;;;;;;;0.10;0.10;;;;;;;;;;5113971;28;20024;-81
2022/04/13 01:25:19;;;;;;;0.10;0.10;;;;;;;;;;5113450;28;20035;-79
2022/04/13 01:27:45;;;;;;;0.10;0.10;;;;;;;;;;5114124;28;20034;-80
2022/04/13 01:30:12;;;;;;;0.10;0.10;;;;;;;;;;5113748;28;20098;-81
2022/04/13 01:32:38;;;;;;;0.10;0.10;;;;;;;;;;5113440;28;20510;-79
2022/04/13 01:35:04;;;;;;;0.20;0.20;;;;;;;;;;5113569;28;20533;-80
2022/04/13 01:37:30;;;;;;;0.10;0.10;;;;;;;;;;5113295;28;20030;-80
2022/04/13 01:39:56;;;;;;;0.10;0.10;;;;;;;;;;5113367;28;20045;-81
2022/04/13 01:42:22;;;;;;;0.10;0.10;;;;;;;;;;5112310;28;20041;-80
2022/04/13 01:44:48;;;;;;;0.20;0.20;;;;;;;;;;5113358;28;20100;-79
2022/04/13 01:47:14;;;;;;;0.10;0.10;;;;;;;;;;5113755;28;20060;-80
2022/04/13 01:49:41;;;;;;;0.10;0.10;;;;;;;;;;5112891;28;20031;-80
2022/04/13 01:52:07;;;;;;;0.10;0.10;;;;;;;;;;5113169;28;20031;-80
2022/04/13 01:54:33;;;;;;;0.10;0.10;;;;;;;;;;5112834;28;20031;-78
2022/04/13 01:57:00;;;;;;;0.10;0.10;;;;;;;;;;5094714;28;20027;-79
2022/04/13 01:59:26;;;;;;;0.10;0.10;;;;;;;;;;5112831;28;20094;-80
2022/04/13 02:01:52;;;;;;;0.10;0.10;;;;;;;;;;5113042;28;20369;-79
2022/04/13 02:04:27;;;;;;;0.10;0.10;;;;;;;;;;5112921;28;20049;-76
2022/04/13 02:06:54;;;;;;;0.10;0.10;;;;;;;;;;5112926;28;20024;-79
2022/04/13 02:09:20;;;;;;;0.10;0.10;;;;;;;;;;5112636;28;20495;-77
2022/04/13 02:11:46;;;;;;;0.15;0.15;;;;;;;;;;5113161;28;20540;-79
2022/04/13 02:14:13;;;;;;;0.10;0.10;;;;;;;;;;5112694;28;20042;-78
2022/04/13 02:16:39;;;;;;;0.10;0.10;;;;;;;;;;5112467;28;20016;-80
2022/04/13 02:19:11;;;;;;;0.10;0.10;;;;;;;;;;5112576;28;20536;-80
2022/04/13 02:21:37;;;;;;;0.10;0.10;;;;;;;;;;5112399;28;20016;-80
2022/04/13 02:24:04;;;;;;;0.10;0.10;;;;;;;;;;5112499;28;20030;-79
2022/04/13 02:26:30;;;;;;;0.10;0.10;;;;;;;;;;5112195;28;20073;-79
2022/04/13 02:28:56;;;;;;;0.10;0.10;;;;;;;;;;5112501;28;20024;-77
2022/04/13 02:31:22;;;;;;;0.10;0.10;;;;;;;;;;5112205;28;20024;-78
2022/04/13 02:33:51;;;;;;;0.10;0.10;;;;;;;;;;5094267;28;20019;-76
2022/04/13 02:36:17;;;;;;;0.10;0.10;;;;;;;;;;5094457;28;20028;-79
2022/04/13 02:38:43;;;;;;;0.10;0.10;;;;;;;;;;5112521;28;20380;-78
2022/04/13 02:41:09;;;;;;;0.10;0.10;;;;;;;;;;5112295;28;20020;-80
2022/04/13 02:43:35;;;;;;;0.15;0.15;;;;;;;;;;5112044;28;20110;-77
2022/04/13 02:46:01;;;;;;;0.10;0.10;;;;;;;;;;5093884;28;20059;-77
2022/04/13 02:48:27;;;;;;;0.10;0.10;;;;;;;;;;5111816;28;20055;-78
2022/04/13 02:50:53;;;;;;;0.13;0.13;;;;;;;;;;5112286;28;20080;-78
2022/04/13 02:53:20;;;;;;;0.10;0.10;;;;;;;;;;5093733;28;20098;-79
2022/04/13 02:55:48;;;;;;;0.20;0.20;;;;;;;;;;5112366;28;20024;-79
2022/04/13 02:58:14;;;;;;;0.10;0.10;;;;;;;;;;5112336;28;20034;-81
2022/04/13 03:00:40;;;;;;;0.10;0.10;;;;;;;;;;5093394;28;20465;-78
2022/04/13 03:03:06;;;;;;;0.10;0.10;;;;;;;;;;5111660;28;20098;-80
2022/04/13 03:05:33;;;;;;;0.10;0.10;;;;;;;;;;5093217;28;20059;-79
2022/04/13 03:07:59;;;;;;;0.10;0.10;;;;;;;;;;5093743;28;20151;-79
2022/04/13 03:10:25;;;;;;;0.10;0.10;;;;;;;;;;5093258;28;20453;-78
2022/04/13 03:12:51;;;;;;;0.10;0.10;;;;;;;;;;5111900;28;20074;-79
2022/04/13 03:15:22;;;;;;;0.10;0.10;;;;;;;;;;5112004;28;20053;-81
2022/04/13 03:17:48;;;;;;;0.10;0.10;;;;;;;;;;5093385;28;20414;-80
2022/04/13 03:20:14;;;;;;;0.10;0.10;;;;;;;;;;5093644;28;20042;-80
2022/04/13 03:22:43;;;;;;;0.10;0.10;;;;;;;;;;5111419;28;20020;-78
2022/04/13 03:25:09;;;;;;;0.10;0.10;;;;;;;;;;5093412;28;20058;-77
2022/04/13 03:27:37;;;;;;;0.10;0.10;;;;;;;;;;5111397;28;20028;-80
2022/04/13 03:30:04;;;;;;;0.15;0.15;;;;;;;;;;5093414;28;20483;-79
2022/04/13 03:32:39;;;;;;;0.10;0.10;;;;;;;;;;5111204;28;20023;-80
2022/04/13 03:35:06;;;;;;;0.10;0.10;;;;;;;;;;5111578;28;20168;-78
2022/04/13 03:37:32;;;;;;;0.10;0.10;;;;;;;;;;5111166;28;20036;-79
2022/04/13 03:39:58;;;;;;;0.10;0.10;;;;;;;;;;5111401;28;20038;-77
2022/04/13 03:42:24;;;;;;;0.10;0.10;;;;;;;;;;5111310;28;20028;-78
2022/04/13 03:44:50;;;;;;;0.10;0.10;;;;;;;;;;5111353;28;20023;-79
2022/04/13 03:47:18;;;;;;;0.10;0.10;;;;;;;;;;5111689;28;20091;-79
2022/04/13 03:49:44;;;;;;;0.10;0.10;;;;;;;;;;5111594;28;20035;-79
2022/04/13 03:52:10;;;;;;;0.10;0.10;;;;;;;;;;5111463;28;20054;-80
2022/04/13 03:54:36;;;;;;;0.10;0.10;;;;;;;;;;5092821;28;20028;-80
2022/04/13 03:57:02;;;;;;;0.10;0.10;;;;;;;;;;5093040;28;20106;-79
2022/04/13 03:59:28;;;;;;;0.10;0.10;;;;;;;;;;5092758;28;20043;-76
2022/04/13 04:01:54;;;;;;;0.10;0.10;;;;;;;;;;5111367;28;20050;-78
2022/04/13 04:04:21;;;;;;;0.43;0.43;;;;;;;;;;5093472;28;20506;-80
2022/04/13 04:06:47;;;;;;;0.10;0.10;;;;;;;;;;5115443;28;20571;-78
2022/04/13 04:09:13;;;;;;;0.10;0.10;;;;;;;;;;5126160;27;20027;-77
2022/04/13 04:11:39;;;;;;;0.10;0.10;;;;;;;;;;5135173;27;20556;-77
2022/04/13 04:14:05;;;;;;;0.10;0.10;;;;;;;;;;5117322;27;20019;-75
2022/04/13 04:16:31;;;;;;;0.10;0.10;;;;;;;;;;5117072;27;20075;-77
2022/04/13 04:18:57;;;;;;;0.10;0.10;;;;;;;;;;5116449;27;20046;-76
2022/04/13 04:21:23;;;;;;;0.10;0.10;;;;;;;;;;5101489;27;20058;-81
2022/04/13 04:23:49;;;;;;;0.15;0.15;;;;;;;;;;5109279;28;20020;-78
2022/04/13 04:26:15;;;;;;;0.10;0.10;;;;;;;;;;5115184;28;20030;-76
2022/04/13 04:28:41;;;;;;;0.10;0.10;;;;;;;;;;5114509;28;20068;-78
2022/04/13 04:31:08;;;;;;;0.20;0.20;;;;;;;;;;5115116;28;20110;-76
2022/04/13 04:33:34;;;;;;;0.10;0.10;;;;;;;;;;5114556;28;20024;-79
2022/04/13 04:36:00;;;;;;;0.10;0.10;;;;;;;;;;5115363;28;20483;-77
2022/04/13 04:38:30;;;;;;;0.10;0.10;;;;;;;;;;5114857;28;20039;-81
2022/04/13 04:40:56;;;;;;;0.10;0.10;;;;;;;;;;5112063;27;20058;-81
2022/04/13 04:43:22;;;;;;;0.10;0.10;;;;;;;;;;5133663;27;20066;-80
2022/04/13 04:45:48;;;;;;;0.20;0.20;;;;;;;;;;5134935;27;20043;-80
2022/04/13 04:48:14;;;;;;;0.10;0.10;;;;;;;;;;5135256;27;20106;-81
2022/04/13 04:50:40;;;;;;;0.10;0.10;;;;;;;;;;5135134;27;20054;-80
2022/04/13 04:53:06;;;;;;;0.00;0.00;;;;;;;;;;5134459;27;20039;-78
2022/04/13 04:55:32;;;;;;;0.10;0.10;;;;;;;;;;5134718;27;20071;-82
2022/04/13 04:57:58;;;;;;;0.10;0.10;;;;;;;;;;5134751;27;20031;-77
2022/04/13 05:00:25;;;;;;;0.10;0.10;;;;;;;;;;5134506;27;20015;-81
2022/04/13 05:02:52;;;;;;;0.10;0.10;;;;;;;;;;5120101;27;20027;-78
2022/04/13 05:05:18;;;;;;;0.10;0.10;;;;;;;;;;5116804;27;20378;-76
2022/04/13 05:07:45;;;;;;;0.10;0.10;;;;;;;;;;5135087;27;20047;-78
2022/04/13 05:10:11;;;;;;;0.20;0.20;;;;;;;;;;5133721;27;20030;-77
2022/04/13 05:12:43;;;;;;;0.10;0.10;;;;;;;;;;5133722;27;20375;-79
2022/04/13 05:15:10;;;;;;;0.10;0.10;;;;;;;;;;5133796;27;20027;-79
2022/04/13 05:17:37;;;;;;;0.10;0.10;;;;;;;;;;5114593;27;20035;-80
2022/04/13 05:20:03;;;;;;;0.10;0.10;;;;;;;;;;5134263;27;20080;-80
2022/04/13 05:22:29;;;;;;;0.10;0.10;;;;;;;;;;5133811;27;20034;-83
2022/04/13 05:24:55;;;;;;;0.10;0.10;;;;;;;;;;5121101;27;20024;-83
2022/04/13 05:27:21;;;;;;;0.10;0.10;;;;;;;;;;5132765;27;20387;-80
2022/04/13 05:29:48;;;;;;;0.10;0.10;;;;;;;;;;5134307;27;20026;-78
2022/04/13 05:32:15;;;;;;;0.10;0.10;;;;;;;;;;5114356;27;20011;-78
2022/04/13 05:34:41;;;;;;;0.10;0.10;;;;;;;;;;5126062;27;20031;-75
2022/04/13 05:37:06;;;;;;;0.10;0.10;;;;;;;;;;5126097;27;20436;-77
2022/04/13 05:39:35;;;;;;;0.10;0.10;;;;;;;;;;5132992;27;20031;-77
2022/04/13 05:42:01;;;;;;;0.10;0.10;;;;;;;;;;5134348;27;20364;-79
2022/04/13 05:44:27;;;;;;;0.10;0.10;;;;;;;;;;5134048;27;20443;-80
2022/04/13 05:46:53;;;;;;;0.10;0.10;;;;;;;;;;5100488;28;20108;-82
2022/04/13 05:49:19;;;;;;;0.10;0.10;;;;;;;;;;5131528;27;20072;-77
2022/04/13 05:51:45;;;;;;;0.10;0.10;;;;;;;;;;5134264;27;20022;-82
2022/04/13 05:54:11;;;;;;;0.10;0.10;;;;;;;;;;5133916;27;20027;-82
2022/04/13 05:56:37;;;;;;;0.10;0.10;;;;;;;;;;5134349;27;20030;-81
2022/04/13 05:59:03;;;;;;;0.20;0.20;;;;;;;;;;5116664;27;20191;-76
2022/04/13 06:01:29;;;;;;;0.10;0.10;;;;;;;;;;5134819;27;20514;-80
2022/04/13 06:03:55;;;;;;;0.10;0.10;;;;;;;;;;5134091;27;20115;-81
2022/04/13 06:06:25;;;;;;;0.10;0.10;;;;;;;;;;5133106;27;20022;-82
2022/04/13 06:08:51;;;;;;;0.17;0.17;;;;;;;;;;5111206;27;20387;-76
2022/04/13 06:11:17;;;;;;;0.10;0.10;;;;;;;;;;5119874;27;20084;-82
2022/04/13 06:13:43;;;;;;;0.10;0.10;;;;;;;;;;5133880;27;20023;-82
2022/04/13 06:16:09;;;;;;;0.10;0.10;;;;;;;;;;5133752;27;20098;-81
2022/04/13 06:18:35;;;;;;;0.10;0.10;;;;;;;;;;5132783;27;20468;-78
2022/04/13 06:21:01;;;;;;;0.10;0.10;;;;;;;;;;5134207;27;20023;-80
2022/04/13 06:23:27;;;;;;;0.10;0.10;;;;;;;;;;5114331;27;20035;-81
2022/04/13 06:25:54;;;;;;;0.15;0.15;;;;;;;;;;5133051;27;20016;-79
2022/04/13 06:28:20;;;;;;;0.10;0.10;;;;;;;;;;5132304;27;20038;-78
2022/04/13 06:30:46;;;;;;;0.10;0.10;;;;;;;;;;5133340;27;20022;-77
2022/04/13 06:33:12;;;;;;;0.10;0.10;;;;;;;;;;5131863;27;20118;-77
2022/04/13 06:35:38;;;;;;;0.10;0.10;;;;;;;;;;5132739;27;20034;-76
2022/04/13 06:38:04;;;;;;;0.10;0.10;;;;;;;;;;5131146;27;20035;-76
2022/04/13 06:40:30;;;;;;;0.10;0.10;;;;;;;;;;5131603;27;20055;-77
2022/04/13 06:42:56;;;;;;;0.10;0.10;;;;;;;;;;5132610;27;20027;-77
2022/04/13 06:45:22;;;;;;;0.10;0.10;;;;;;;;;;5132008;27;20023;-77
2022/04/13 06:47:48;;;;;;;0.08;0.08;;;;;;;;;;5132257;27;20094;-78
2022/04/13 06:50:14;;;;;;;0.10;0.10;;;;;;;;;;5131601;27;20027;-81
2022/04/13 06:52:41;;;;;;;0.20;0.20;;;;;;;;;;5128743;27;20072;-78
2022/04/13 06:55:10;;;;;;;0.10;0.10;;;;;;;;;;5129245;27;20037;-77
2022/04/13 06:57:40;;;;;;;0.10;0.10;;;;;;;;;;5101577;28;20071;-78
2022/04/13 07:00:07;;;;;;;0.10;0.10;;;;;;;;;;5112052;28;20027;-80
2022/04/13 07:02:34;;;;;;;0.10;0.10;;;;;;;;;;5111792;28;20088;-79
2022/04/13 07:05:00;;;;;;;0.10;0.10;;;;;;;;;;5111938;28;20020;-79
2022/04/13 07:07:26;;;;;;;0.10;0.10;;;;;;;;;;5093373;28;20446;-79
2022/04/13 07:09:52;;;;;;;0.10;0.10;;;;;;;;;;5112891;27;20028;-78
2022/04/13 07:12:18;;;;;;;0.10;0.10;;;;;;;;;;5107957;27;20038;-81
2022/04/13 07:14:44;;;;;;;0.10;0.10;;;;;;;;;;5122311;27;20038;-79
2022/04/13 07:17:11;;;;;;;0.10;0.10;;;;;;;;;;5117806;27;20023;-79
2022/04/13 07:19:37;;;;;;;0.10;0.10;;;;;;;;;;5103976;28;20521;-80
2022/04/13 07:22:03;;;;;;;0.10;0.10;;;;;;;;;;5105916;28;20031;-80
2022/04/13 07:24:29;;;;;;;0.10;0.10;;;;;;;;;;5117598;27;20019;-80
2022/04/13 07:26:58;;;;;;;0.10;0.10;;;;;;;;;;5103587;27;20031;-80
2022/04/13 07:29:24;;;;;;;0.10;0.10;;;;;;;;;;5113633;27;20011;-81
2022/04/13 07:31:50;;;;;;;0.10;0.10;;;;;;;;;;5130725;27;20051;-81
2022/04/13 07:34:16;;;;;;;0.10;0.10;;;;;;;;;;5119308;28;20103;-81
2022/04/13 07:36:42;;;;;;;0.10;0.10;;;;;;;;;;5112363;28;20126;-79
2022/04/13 07:39:08;;;;;;;0.10;0.10;;;;;;;;;;5131063;27;20380;-78
2022/04/13 07:41:34;;;;;;;0.10;0.10;;;;;;;;;;5099922;27;20024;-79
2022/04/13 07:44:01;;;;;;;0.10;0.10;;;;;;;;;;5134309;27;20127;-79
2022/04/13 07:46:30;;;;;;;0.10;0.10;;;;;;;;;;5116574;27;20565;-78
2022/04/13 07:48:58;;;;;;;0.10;0.10;;;;;;;;;;5134931;27;20031;-80
2022/04/13 07:51:24;;;;;;;0.10;0.10;;;;;;;;;;5116380;27;20479;-79
2022/04/13 07:53:50;;;;;;;0.10;0.10;;;;;;;;;;5135698;27;20030;-80
2022/04/13 07:56:16;;;;;;;0.10;0.10;;;;;;;;;;5135733;27;20380;-79
2022/04/13 07:58:42;;;;;;;0.10;0.10;;;;;;;;;;5134812;27;20498;-79
2022/04/13 08:01:09;;;;;;;0.10;0.10;;;;;;;;;;5116261;27;20027;-80
2022/04/13 08:03:35;;;;;;;0.13;0.13;;;;;;;;;;5134520;27;20031;-79
2022/04/13 08:06:02;;;;;;;0.10;0.10;;;;;;;;;;5116462;27;20054;-79
2022/04/13 08:08:28;;;;;;;0.10;0.10;;;;;;;;;;5134171;27;20375;-80
2022/04/13 08:10:55;;;;;;;0.10;0.10;;;;;;;;;;5134699;27;20038;-79
2022/04/13 08:13:21;;;;;;;0.10;0.10;;;;;;;;;;5107990;27;20551;-78
2022/04/13 08:15:47;;;;;;;0.10;0.10;;;;;;;;;;5101400;28;20028;-79
2022/04/13 08:18:13;;;;;;;0.20;0.20;;;;;;;;;;5106516;27;20038;-80
2022/04/13 08:20:39;;;;;;;0.10;0.10;;;;;;;;;;5104283;28;20027;-80
2022/04/13 08:23:05;;;;;;;0.10;0.10;;;;;;;;;;5132004;27;20028;-79
2022/04/13 08:25:31;;;;;;;0.10;0.10;;;;;;;;;;5133594;27;20417;-79
2022/04/13 08:27:57;;;;;;;0.10;0.10;;;;;;;;;;5135180;27;20049;-80
2022/04/13 08:30:25;;;;;;;0.10;0.10;;;;;;;;;;5134808;27;20478;-80
2022/04/13 08:32:51;;;;;;;0.20;0.20;;;;;;;;;;5115302;27;20035;-79
2022/04/13 08:35:17;;;;;;;0.10;0.10;;;;;;;;;;5103693;27;20078;-80
2022/04/13 08:37:43;;;;;;;0.10;0.10;;;;;;;;;;5115284;27;20498;-80
2022/04/13 08:40:10;;;;;;;0.10;0.10;;;;;;;;;;5135140;27;20038;-79
2022/04/13 08:42:47;;;;;;;0.17;0.17;;;;;;;;;;5134586;27;20035;-80
2022/04/13 08:45:23;;;;;;;0.10;0.10;;;;;;;;;;5134280;27;20031;-80
2022/04/13 08:47:56;;;;;;;0.10;0.10;;;;;;;;;;5135004;27;20088;-79
2022/04/13 08:50:23;;;;;;;0.10;0.10;;;;;;;;;;5132900;27;20027;-78
2022/04/13 08:52:51;;;;;;;0.20;0.20;;;;;;;;;;5114587;27;20027;-80
2022/04/13 08:55:19;;;;;;;0.10;0.10;;;;;;;;;;5133893;27;20027;-80
2022/04/13 08:57:48;;;;;;;0.10;0.10;;;;;;;;;;5115699;27;20065;-80
2022/04/13 09:00:14;;;;;;;0.10;0.10;;;;;;;;;;5134894;27;20048;-80
2022/04/13 09:03:00;;;;;;;0.10;0.10;;;;;;;;;;5134283;27;20059;-81
2022/04/13 09:05:28;;;;;;;0.10;0.10;;;;;;;;;;5133914;27;20038;-80
2022/04/13 09:08:07;;;;;;;0.10;0.10;;;;;;;;;;5115884;27;20469;-81
2022/04/13 09:10:33;;;;;;;0.10;0.10;;;;;;;;;;5133651;27;20088;-80
2022/04/13 09:13:00;;;;;;;0.10;0.10;;;;;;;;;;5134136;27;20531;-80
2022/04/13 09:15:26;;;;;;;0.10;0.10;;;;;;;;;;5133669;27;20444;-80
2022/04/13 09:17:52;;;;;;;0.10;0.10;;;;;;;;;;5133832;27;20111;-80
2022/04/13 09:20:18;;;;;;;0.10;0.10;;;;;;;;;;5133353;27;20020;-79
2022/04/13 09:22:44;;;;;;;0.10;0.10;;;;;;;;;;5134141;27;20023;-80
2022/04/13 09:25:11;;;;;;;0.10;0.10;;;;;;;;;;5133777;27;20034;-80
2022/04/13 09:27:38;;;;;;;0.10;0.10;;;;;;;;;;5098934;27;20054;-80
2022/04/13 09:30:05;;;;;;;0.10;0.10;;;;;;;;;;5133332;27;20019;-80
2022/04/13 09:32:31;;;;;;;0.10;0.10;;;;;;;;;;5133877;27;20422;-80
2022/04/13 09:34:57;;;;;;;0.10;0.10;;;;;;;;;;5133452;27;20023;-80
2022/04/13 09:37:24;;;;;;;0.10;0.10;;;;;;;;;;5114822;27;20030;-80
2022/04/13 09:39:50;;;;;;;0.10;0.10;;;;;;;;;;5132450;27;20023;-79
2022/04/13 09:42:16;;;;;;;0.10;0.10;;;;;;;;;;5134003;27;20059;-79
2022/04/13 09:44:43;;;;;;;0.10;0.10;;;;;;;;;;5133387;27;20115;-80
2022/04/13 09:47:12;;;;;;;0.10;0.10;;;;;;;;;;5133258;27;20136;-80
2022/04/13 09:49:56;;;;;;;0.10;0.10;;;;;;;;;;5132381;27;20034;-81
2022/04/13 09:52:26;;;;;;;0.10;0.10;;;;;;;;;;5113402;27;20084;-79
2022/04/13 09:54:52;;;;;;;0.10;0.10;;;;;;;;;;5133405;27;20029;-79
2022/04/13 09:57:22;;;;;;;0.10;0.10;;;;;;;;;;5132966;27;20030;-78
2022/04/13 09:59:55;;;;;;;0.20;0.20;;;;;;;;;;5115044;27;20023;-79
2022/04/13 10:02:37;;;;;;;0.10;0.10;;;;;;;;;;5111761;27;20118;-81
2022/04/13 10:05:04;;;;;;;0.10;0.10;;;;;;;;;;5114927;27;20023;-80
2022/04/13 10:07:30;;;;;;;0.10;0.10;;;;;;;;;;5114837;27;20024;-80
2022/04/13 10:09:56;;;;;;;0.10;0.10;;;;;;;;;;5133412;27;20102;-79
2022/04/13 10:12:22;;;;;;;0.10;0.10;;;;;;;;;;5133130;27;20512;-80
2022/04/13 10:14:48;;;;;;;0.10;0.10;;;;;;;;;;5115353;27;20061;-79
2022/04/13 10:17:15;;;;;;;0.10;0.10;;;;;;;;;;5132585;27;20087;-80
2022/04/13 10:19:42;;;;;;;0.10;0.10;;;;;;;;;;5132679;27;20076;-82
2022/04/13 10:22:08;;;;;;;0.10;0.10;;;;;;;;;;5097498;28;20777;-80
2022/04/13 10:24:35;;;;;;;0.10;0.10;;;;;;;;;;5112575;28;20487;-81
2022/04/13 10:27:08;;;;;;;0.10;0.10;;;;;;;;;;5124182;27;20019;-80
2022/04/13 10:29:37;;;;;;;0.10;0.10;;;;;;;;;;5131748;27;21777;-82
2022/04/13 10:32:09;;;;;;;0.10;0.10;;;;;;;;;;5132270;27;20168;-81
2022/04/13 10:34:40;;;;;;;0.10;0.10;;;;;;;;;;5131837;27;20036;-81
2022/04/13 10:37:06;;;;;;;0.10;0.10;;;;;;;;;;5132176;27;20015;-81
2022/04/13 10:39:32;;;;;;;0.10;0.10;;;;;;;;;;5122871;27;20031;-81
2022/04/13 10:41:58;;;;;;;0.20;0.20;;;;;;;;;;5131697;27;20050;-80
2022/04/13 10:44:27;;;;;;;0.10;0.10;;;;;;;;;;5131759;27;20167;-80
2022/04/13 10:46:55;;;;;;;0.10;0.10;;;;;;;;;;5126404;27;20112;-82
2022/04/13 10:49:24;;;;;;;0.10;0.10;;;;;;;;;;5112445;28;20081;-82
2022/04/13 10:51:53;;;;;;;0.10;0.10;;;;;;;;;;5111128;28;20084;-81
2022/04/13 10:54:20;;;;;;;0.10;0.10;;;;;;;;;;5112128;28;20506;-79
2022/04/13 10:56:50;;;;;;;0.10;0.10;;;;;;;;;;5111669;28;20029;-81
2022/04/13 10:59:19;;;;;;;0.10;0.10;;;;;;;;;;5111344;28;20520;-82
2022/04/13 11:01:48;;;;;;;0.15;0.15;;;;;;;;;;5112417;28;20024;-83
2022/04/13 11:04:16;;;;;;;0.10;0.10;;;;;;;;;;5105317;28;20748;-79
2022/04/13 11:06:43;;;;;;;0.10;0.10;;;;;;;;;;5106105;27;20512;-80
2022/04/13 11:09:16;;;;;;;0.10;0.10;;;;;;;;;;5132724;27;20023;-80
2022/04/13 11:11:42;;;;;;;0.10;0.10;;;;;;;;;;5132469;27;20030;-80
2022/04/13 11:14:17;;;;;;;0.10;0.10;;;;;;;;;;5133996;27;20102;-80
2022/04/13 11:16:43;;;;;;;0.10;0.10;;;;;;;;;;5137795;27;20015;-80
2022/04/13 11:19:09;;;;;;;0.10;0.10;;;;;;;;;;5132515;27;20031;-79
2022/04/13 11:21:55;;;;;;;0.10;0.10;;;;;;;;;;5132197;27;20498;-79
2022/04/13 11:24:21;;;;;;;;;;;;;;;;;;5126399;27;20023;-78
2022/04/13 11:26:48;;;;;;;0.10;0.10;;;;;;;;;;5112070;28;19914;-79
2022/04/13 11:29:17;;;;;;;0.50;0.50;;;;;;;;;;5114017;28;20024;-79
2022/04/13 11:32:02;;;;;;;0.10;0.10;;;;;;;;;;5121030;27;20093;-79
2022/04/13 11:34:28;;;;;;;0.10;0.10;;;;;;;;;;5121416;28;20022;-81
2022/04/13 11:36:58;;;;;;;0.10;0.10;;;;;;;;;;5122831;27;20513;-82
2022/04/13 11:39:42;;;;;;;0.10;0.10;;;;;;;;;;5106488;28;20503;-83
2022/04/13 11:42:18;;;;;;;0.10;0.10;;;;;;;;;;5096103;28;21074;-80
2022/04/13 11:44:47;;;;;;;0.10;0.10;;;;;;;;;;5122734;28;20039;-79
2022/04/13 11:47:17;;;;;;;0.10;0.10;;;;;;;;;;5123856;27;20028;-82
2022/04/13 11:49:56;;;;;;;0.10;0.10;;;;;;;;;;5114677;28;20053;-83
2022/04/13 11:52:43;;;;;;;0.10;0.10;;;;;;;;;;5106715;28;20100;-83
2022/04/13 11:55:16;;;;;;;0.10;0.10;;;;;;;;;;5120999;27;20094;-82
2022/04/13 11:58:02;;;;;;;0.10;0.10;;;;;;;;;;5123672;28;20027;-82
2022/04/13 12:00:49;;;;;;;0.10;0.10;;;;;;;;;;5125264;27;20068;-82
2022/04/13 12:03:16;;;;;;;0.10;0.10;;;;;;;;;;5111864;28;20111;-83
2022/04/13 12:05:46;;;;;;;0.13;0.13;;;;;;;;;;5128638;27;20031;-82
2022/04/13 12:08:13;;;;;;;0.10;0.10;;;;;;;;;;5132181;27;20059;-82
2022/04/13 12:10:44;;;;;;;0.10;0.10;;;;;;;;;;5131966;28;20027;-83
2022/04/13 12:13:10;;;;;;;0.10;0.10;;;;;;;;;;5125478;27;20047;-82
2022/04/13 12:15:42;;;;;;;0.10;0.10;;;;;;;;;;5111352;28;20080;-83
2022/04/13 12:18:12;;;;;;;0.10;0.10;;;;;;;;;;5111593;28;20035;-82
2022/04/13 12:20:38;;;;;;;0.10;0.10;;;;;;;;;;5111422;28;20302;-83
2022/04/13 12:23:20;;;;;;;0.10;0.10;;;;;;;;;;5111595;28;20059;-84
2022/04/13 12:25:47;;;;;;;0.10;0.10;;;;;;;;;;5113303;28;20399;-82
2022/04/13 12:28:13;;;;;;;0.10;0.10;;;;;;;;;;5135815;27;20062;-82
2022/04/13 12:30:39;;;;;;;0.10;0.10;;;;;;;;;;5135634;27;20143;-84
2022/04/13 12:33:13;;;;;;;0.10;0.10;;;;;;;;;;5135804;27;20026;-83
2022/04/13 12:35:51;;;;;;;0.10;0.10;;;;;;;;;;5116770;27;20030;-84
2022/04/13 12:38:21;;;;;;;0.10;0.10;;;;;;;;;;5135937;27;20039;-83
2022/04/13 12:40:47;;;;;;;0.10;0.10;;;;;;;;;;5135928;27;20032;-84
2022/04/13 12:43:25;;;;;;;0.10;0.10;;;;;;;;;;5121554;27;20487;-82
2022/04/13 12:45:51;;;;;;;0.10;0.10;;;;;;;;;;5117132;27;20497;-83
2022/04/13 12:48:17;;;;;;;0.10;0.10;;;;;;;;;;5107090;27;20100;-83
2022/04/13 12:50:56;;;;;;;0.90;0.90;;;;;;;;;;5134912;27;20067;-83
2022/04/13 12:53:22;;;;;;;0.10;0.10;;;;;;;;;;5135009;27;20019;-84
2022/04/13 12:55:52;;;;;;;0.10;0.10;;;;;;;;;;5135274;27;20023;-80
2022/04/13 12:58:18;;;;;;;0.10;0.10;;;;;;;;;;5135165;27;20446;-81
2022/04/13 13:00:48;;;;;;;0.10;0.10;;;;;;;;;;5135530;27;20390;-84
2022/04/13 13:03:14;;;;;;;0.10;0.10;;;;;;;;;;5131272;27;20491;-84
2022/04/13 13:05:40;;;;;;;0.10;0.10;;;;;;;;;;5117560;27;20035;-84
2022/04/13 13:08:06;;;;;;;0.10;0.10;;;;;;;;;;5099373;28;20028;-84
2022/04/13 13:10:33;;;;;;;0.00;0.00;;;;;;;;;;5125804;27;20055;-82
2022/04/13 13:13:09;;;;;;;0.05;0.05;;;;;;;;;;5134870;27;20506;-83
2022/04/13 13:15:36;;;;;;;0.10;0.10;;;;;;;;;;5134611;27;20482;-84
2022/04/13 13:18:08;;;;;;;0.10;0.10;;;;;;;;;;5130086;27;20058;-83
2022/04/13 13:20:35;;;;;;;0.10;0.10;;;;;;;;;;5113789;28;20016;-81
2022/04/13 13:23:09;;;;;;;0.10;0.10;;;;;;;;;;5095811;28;20194;-82
2022/04/13 13:25:41;;;;;;;0.10;0.10;;;;;;;;;;5113921;28;20453;-81
2022/04/13 13:28:08;;;;;;;0.10;0.10;;;;;;;;;;5095712;28;20390;-82
2022/04/13 13:30:40;;;;;;;0.10;0.10;;;;;;;;;;5095329;28;20464;-83
2022/04/13 13:33:11;;;;;;;0.10;0.10;;;;;;;;;;5097730;27;20026;-84
2022/04/13 13:35:38;;;;;;;0.10;0.10;;;;;;;;;;5115945;27;20023;-83
2022/04/13 13:38:11;;;;;;;0.10;0.10;;;;;;;;;;5133267;27;20034;-82
2022/04/13 13:40:37;;;;;;;0.10;0.10;;;;;;;;;;5134715;27;20031;-80
2022/04/13 13:43:06;;;;;;;0.10;0.10;;;;;;;;;;5134364;27;20023;-83
2022/04/13 13:45:35;;;;;;;0.10;0.10;;;;;;;;;;5134053;27;20023;-80
2022/04/13 13:48:03;;;;;;;0.10;0.10;;;;;;;;;;5116027;27;20111;-83
2022/04/13 13:50:29;;;;;;;0.10;0.10;;;;;;;;;;5133841;27;20070;-82
2022/04/13 13:52:55;;;;;;;0.10;0.10;;;;;;;;;;5134213;27;20019;-81
2022/04/13 13:55:25;;;;;;;0.20;0.20;;;;;;;;;;5125960;27;20525;-83
2022/04/13 13:57:51;;;;;;;0.10;0.10;;;;;;;;;;5097173;28;20408;-81
2022/04/13 14:00:18;;;;;;;0.10;0.10;;;;;;;;;;5112992;28;20051;-82
2022/04/13 14:02:52;;;;;;;0.10;0.10;;;;;;;;;;5095284;28;20016;-84
2022/04/13 14:05:19;;;;;;;0.10;0.10;;;;;;;;;;5113463;28;20102;-81
2022/04/13 14:07:45;;;;;;;0.10;0.10;;;;;;;;;;5113471;28;20095;-82
2022/04/13 14:10:11;;;;;;;0.10;0.10;;;;;;;;;;5113073;28;20051;-81
2022/04/13 14:12:37;;;;;;;0.05;0.05;;;;;;;;;;5094687;28;20391;-81
2022/04/13 14:15:04;;;;;;;0.00;0.00;;;;;;;;;;5113125;28;20023;-81
2022/04/13 14:17:31;;;;;;;0.10;0.10;;;;;;;;;;5094633;28;20455;-81
2022/04/13 14:19:57;;;;;;;0.00;0.00;;;;;;;;;;5115553;27;20038;-80
2022/04/13 14:22:23;;;;;;;0.00;0.00;;;;;;;;;;5122950;27;20027;-81
2022/04/13 14:24:49;;;;;;;0.10;0.10;;;;;;;;;;5121146;27;20019;-81
2022/04/13 14:27:15;;;;;;;0.10;0.10;;;;;;;;;;5122860;27;20388;-80
2022/04/13 14:29:41;;;;;;;0.10;0.10;;;;;;;;;;5121917;27;20012;-80
2022/04/13 14:32:07;;;;;;;0.10;0.10;;;;;;;;;;5120655;27;20098;-81
2022/04/13 14:34:33;;;;;;;0.10;0.10;;;;;;;;;;5123394;27;20034;-81
2022/04/13 14:37:00;;;;;;;0.10;0.10;;;;;;;;;;5126452;27;20015;-80
2022/04/13 14:39:26;;;;;;;0.10;0.10;;;;;;;;;;5133341;27;20505;-81
2022/04/13 14:41:52;;;;;;;0.10;0.10;;;;;;;;;;5133415;27;20027;-82
2022/04/13 14:44:18;;;;;;;0.10;0.10;;;;;;;;;;5111506;28;20522;-80
2022/04/13 14:46:44;;;;;;;0.10;0.10;;;;;;;;;;5120670;27;20024;-80